createdAt,value
2018-04-11T00:00:44.539Z,95.00
2018-04-11T00:03:12.000Z,95.20
2018-04-11T00:05:39.461Z,95.50
2018-04-11T00:08:06.926Z,96.10
2018-04-11T00:10:34.395Z,96.60
2018-04-11T00:13:01.853Z,96.80
2018-04-11T00:15:29.354Z,97.10
2018-04-11T00:17:56.779Z,97.40
2018-04-11T00:20:24.236Z,97.40
2018-04-11T00:22:52.264Z,97.50
2018-04-11T00:25:19.723Z,97.70
2018-04-11T00:27:47.228Z,97.70
2018-04-11T00:30:14.688Z,98.30
2018-04-11T00:32:42.180Z,98.80
2018-04-11T00:35:09.687Z,99.30
2018-04-11T00:37:37.161Z,99.20
2018-04-11T00:40:04.624Z,99.60
2018-04-11T00:42:32.153Z,99.50
2018-04-11T00:44:59.611Z,99.60
2018-04-11T00:47:27.160Z,99.90
2018-04-11T00:49:54.635Z,99.80
2018-04-11T00:52:22.115Z,99.90
2018-04-11T00:54:49.575Z,99.90
2018-04-11T00:57:17.041Z,99.90
2018-04-11T00:59:44.660Z,99.90
2018-04-11T01:02:12.184Z,99.90
2018-04-11T01:04:39.659Z,99.90
2018-04-11T01:07:07.268Z,99.90
2018-04-11T01:09:34.777Z,99.90
2018-04-11T01:12:02.237Z,99.90
2018-04-11T01:14:29.696Z,99.90
2018-04-11T01:16:57.246Z,99.90
2018-04-11T01:19:24.849Z,99.90
2018-04-11T01:21:52.303Z,99.90
2018-04-11T01:24:19.760Z,99.90
2018-04-11T01:26:47.267Z,99.90
2018-04-11T01:29:14.828Z,99.90
2018-04-11T01:31:42.376Z,99.90
2018-04-11T01:34:09.847Z,99.90
2018-04-11T01:36:37.389Z,99.90
2018-04-11T01:39:05.673Z,99.90
2018-04-11T01:41:33.136Z,99.90
2018-04-11T01:44:00.596Z,99.90
2018-04-11T01:46:28.058Z,99.90
2018-04-11T01:48:55.528Z,99.90
2018-04-11T02:08:38.397Z,99.90
2018-04-11T02:11:05.880Z,99.90
2018-04-11T02:13:33.391Z,99.90
2018-04-11T02:16:00.912Z,99.90
2018-04-11T02:18:28.380Z,99.90
2018-04-11T02:20:56.067Z,99.90
2018-04-11T02:40:40.952Z,99.90
2018-04-11T02:43:08.422Z,99.90
2018-04-11T02:45:35.972Z,99.90
2018-04-11T02:48:03.529Z,99.90
2018-04-11T02:50:31.051Z,99.90
2018-04-11T02:52:58.511Z,99.90
2018-04-11T02:55:26.000Z,99.90
2018-04-11T02:57:53.472Z,99.90
2018-04-11T03:00:20.940Z,99.90
2018-04-11T03:02:48.411Z,99.90
2018-04-11T03:05:15.881Z,99.90
2018-04-11T03:07:43.349Z,99.90
2018-04-11T03:10:10.818Z,99.90
2018-04-11T03:12:38.373Z,99.90
2018-04-11T03:15:05.833Z,99.90
2018-04-11T03:17:33.296Z,99.90
2018-04-11T03:20:00.755Z,99.90
2018-04-11T03:22:28.215Z,99.90
2018-04-11T03:24:56.444Z,99.90
2018-04-11T03:27:23.908Z,99.90
2018-04-11T03:29:51.367Z,99.90
2018-04-11T03:32:19.005Z,99.90
2018-04-11T03:34:46.465Z,99.90
2018-04-11T03:37:13.973Z,99.90
2018-04-11T03:39:41.530Z,99.90
2018-04-11T03:59:24.964Z,99.90
2018-04-11T04:01:52.587Z,99.90
2018-04-11T04:21:39.020Z,99.90
2018-04-11T04:24:06.491Z,99.90
2018-04-11T04:26:33.949Z,99.90
2018-04-11T04:29:01.469Z,99.90
2018-04-11T04:31:29.128Z,99.90
2018-04-11T04:33:56.600Z,99.90
2018-04-11T04:36:24.054Z,99.90
2018-04-11T04:38:51.624Z,99.90
2018-04-11T04:41:19.172Z,99.90
2018-04-11T04:43:46.657Z,99.90
2018-04-11T04:46:14.120Z,99.90
2018-04-11T04:48:41.599Z,99.90
2018-04-11T04:51:09.257Z,99.90
2018-04-11T04:53:36.707Z,99.90
2018-04-11T04:56:04.971Z,99.90
2018-04-11T04:58:32.440Z,99.90
2018-04-11T05:00:59.940Z,99.90
2018-04-11T05:03:27.499Z,99.90
2018-04-11T05:05:55.855Z,99.90
2018-04-11T05:08:23.338Z,99.90
2018-04-11T05:28:06.697Z,99.90
2018-04-11T05:30:34.214Z,99.90
2018-04-11T05:33:01.680Z,99.90
2018-04-11T05:35:29.147Z,99.90
2018-04-11T05:37:56.667Z,99.90
2018-04-11T05:40:24.167Z,99.90
2018-04-11T05:42:51.812Z,99.90
2018-04-11T05:45:19.292Z,99.90
2018-04-11T05:47:46.794Z,99.90
2018-04-11T05:50:14.276Z,99.90
2018-04-11T05:52:41.853Z,99.90
2018-04-11T05:55:09.356Z,99.90
2018-04-11T05:57:36.959Z,99.90
2018-04-11T06:00:04.446Z,99.90
2018-04-11T06:02:31.962Z,99.90
2018-04-11T06:04:59.457Z,99.90
2018-04-11T06:07:26.928Z,99.90
2018-04-11T06:09:54.406Z,99.90
2018-04-11T06:12:21.930Z,99.90
2018-04-11T06:14:49.418Z,99.90
2018-04-11T06:17:16.883Z,99.90
2018-04-11T06:19:44.446Z,99.90
2018-04-11T06:22:11.959Z,99.90
2018-04-11T06:24:39.428Z,99.50
2018-04-11T06:27:06.967Z,99.50
2018-04-11T06:29:34.434Z,98.80
2018-04-11T06:32:02.011Z,99.10
2018-04-11T06:34:29.522Z,99.90
2018-04-11T06:36:57.103Z,99.70
2018-04-11T06:39:24.668Z,99.50
2018-04-11T06:41:52.160Z,99.40
2018-04-11T06:44:19.634Z,99.70
2018-04-11T06:46:47.152Z,99.60
2018-04-11T06:49:14.974Z,99.60
2018-04-11T06:51:42.549Z,99.10
2018-04-11T06:54:10.018Z,98.90
2018-04-11T06:56:37.487Z,99.10
2018-04-11T06:59:05.020Z,98.70
2018-04-11T07:01:32.584Z,98.30
2018-04-11T07:04:00.189Z,98.40
2018-04-11T07:06:27.662Z,98.50
2018-04-11T07:08:55.127Z,97.70
2018-04-11T07:11:22.634Z,98.10
2018-04-11T07:13:50.113Z,97.10
2018-04-11T07:16:17.586Z,96.20
2018-04-11T07:18:45.056Z,96.40
2018-04-11T07:21:12.528Z,95.90
2018-04-11T07:23:40.003Z,95.50
2018-04-11T07:26:07.505Z,95.60
2018-04-11T07:28:34.982Z,93.90
2018-04-11T07:31:02.539Z,93.60
2018-04-11T07:33:30.028Z,92.80
2018-04-11T07:35:57.498Z,91.70
2018-04-11T07:38:24.977Z,91.20
2018-04-11T07:40:52.495Z,90.30
2018-04-11T07:43:19.957Z,91.60
2018-04-11T07:45:47.471Z,90.40
2018-04-11T07:48:14.965Z,89.90
2018-04-11T07:50:42.479Z,90.70
2018-04-11T07:53:09.945Z,92.70
2018-04-11T07:55:37.524Z,93.70
2018-04-11T07:58:04.995Z,93.40
2018-04-11T08:00:32.465Z,93.60
2018-04-11T08:03:00.050Z,93.60
2018-04-11T08:05:27.572Z,93.20
2018-04-11T08:07:55.104Z,94.10
2018-04-11T08:10:22.565Z,92.80
2018-04-11T08:12:50.036Z,93.30
2018-04-11T08:15:17.640Z,94.10
2018-04-11T08:17:45.135Z,93.90
2018-04-11T08:20:12.641Z,93.90
2018-04-11T08:22:40.104Z,95.30
2018-04-11T08:25:07.636Z,93.90
2018-04-11T08:27:35.268Z,94.40
2018-04-11T08:30:02.738Z,93.80
2018-04-11T08:32:30.209Z,94.10
2018-04-11T08:34:57.679Z,95.40
2018-04-11T08:37:25.374Z,95.00
2018-04-11T08:39:52.840Z,94.60
2018-04-11T08:59:36.592Z,93.50
2018-04-11T09:02:04.062Z,93.50
2018-04-11T09:04:31.625Z,93.50
2018-04-11T09:06:59.151Z,93.00
2018-04-11T09:09:26.719Z,93.70
2018-04-11T09:11:54.271Z,93.50
2018-04-11T09:14:21.803Z,93.60
2018-04-11T09:16:49.302Z,93.70
2018-04-11T09:19:16.847Z,93.60
2018-04-11T09:21:44.450Z,93.80
2018-04-11T09:24:12.067Z,93.50
2018-04-11T09:26:39.529Z,94.00
2018-04-11T09:29:07.063Z,93.40
2018-04-11T09:31:34.576Z,92.90
2018-04-11T09:34:02.052Z,92.90
2018-04-11T09:36:29.792Z,92.60
2018-04-11T09:38:57.263Z,92.10
2018-04-11T09:41:24.776Z,91.80
2018-04-11T09:43:52.237Z,90.40
2018-04-11T09:46:19.775Z,90.30
2018-04-11T09:48:47.245Z,90.00
2018-04-11T09:51:15.111Z,90.00
2018-04-11T09:53:42.584Z,89.70
2018-04-11T09:56:10.045Z,88.10
2018-04-11T09:58:37.551Z,87.40
2018-04-11T10:01:05.045Z,83.30
2018-04-11T10:03:32.681Z,78.50
2018-04-11T10:06:00.176Z,78.40
2018-04-11T10:08:27.799Z,73.10
2018-04-11T10:10:55.297Z,66.80
2018-04-11T10:13:22.839Z,64.00
2018-04-11T10:15:50.369Z,64.50
2018-04-11T10:18:17.895Z,57.80
2018-04-11T10:20:45.476Z,57.10
2018-04-11T10:23:12.939Z,54.50
2018-04-11T10:25:40.427Z,53.10
2018-04-11T10:28:07.892Z,55.60
2018-04-11T10:30:35.364Z,56.70
2018-04-11T10:33:02.851Z,57.70
2018-04-11T10:35:30.385Z,61.90
2018-04-11T10:37:57.937Z,59.80
2018-04-11T10:40:25.431Z,56.30
2018-04-11T10:42:52.924Z,59.00
2018-04-11T10:45:20.385Z,62.60
2018-04-11T10:47:47.857Z,64.20
2018-04-11T10:50:15.650Z,63.30
2018-04-11T10:52:43.159Z,63.90
2018-04-11T10:55:10.656Z,60.30
2018-04-11T10:57:38.144Z,61.60
2018-04-11T11:00:05.700Z,61.40
2018-04-11T11:02:33.161Z,60.60
2018-04-11T11:05:01.168Z,63.50
2018-04-11T11:07:28.659Z,61.90
2018-04-11T11:09:56.130Z,62.10
2018-04-11T11:12:23.652Z,63.00
2018-04-11T11:14:51.143Z,58.20
2018-04-11T11:17:18.785Z,54.20
2018-04-11T11:19:57.940Z,48.90
2018-04-11T11:22:25.403Z,49.10
2018-04-11T11:24:52.953Z,49.40
2018-04-11T11:27:20.513Z,47.50
2018-04-11T11:29:48.070Z,46.60
2018-04-11T11:32:15.566Z,44.80
2018-04-11T11:34:43.739Z,45.00
2018-04-11T11:37:11.206Z,46.40
2018-04-11T11:39:38.672Z,45.10
2018-04-11T11:42:06.172Z,48.80
2018-04-11T11:44:33.635Z,48.40
2018-04-11T11:47:01.110Z,49.30
2018-04-11T11:49:28.733Z,48.30
2018-04-11T11:51:56.238Z,44.30
2018-04-11T11:54:23.788Z,44.00
2018-04-11T11:56:51.317Z,40.90
2018-04-11T11:59:19.039Z,42.10
2018-04-11T12:01:46.593Z,43.20
2018-04-11T12:04:14.088Z,41.50
2018-04-11T12:06:41.559Z,43.70
2018-04-11T12:09:09.250Z,43.40
2018-04-11T12:11:36.756Z,44.10
2018-04-11T12:14:04.294Z,43.80
2018-04-11T12:16:31.773Z,45.40
2018-04-11T12:18:59.345Z,46.60
2018-04-11T12:21:26.831Z,46.80
2018-04-11T12:23:54.868Z,45.60
2018-04-11T12:26:22.344Z,46.60
2018-04-11T12:28:49.797Z,41.70
2018-04-11T12:31:17.311Z,44.40
2018-04-11T12:33:44.774Z,46.70
2018-04-11T12:36:12.305Z,44.80
2018-04-11T12:38:39.800Z,44.20
2018-04-11T12:41:07.261Z,41.00
2018-04-11T12:43:34.784Z,44.90
2018-04-11T12:46:02.406Z,42.80
2018-04-11T12:48:30.044Z,43.50
2018-04-11T12:50:57.517Z,46.30
2018-04-11T12:53:24.981Z,48.10
2018-04-11T12:55:52.455Z,49.50
2018-04-11T12:58:19.928Z,51.30
2018-04-11T13:00:47.448Z,52.20
2018-04-11T13:03:14.921Z,54.70
2018-04-11T13:05:42.388Z,54.90
2018-04-11T13:08:09.901Z,55.10
2018-04-11T13:10:37.469Z,52.70
2018-04-11T13:13:04.935Z,50.50
2018-04-11T13:15:32.390Z,52.60
2018-04-11T13:17:59.853Z,50.00
2018-04-11T13:20:27.321Z,50.60
2018-04-11T13:22:54.820Z,46.50
2018-04-11T13:25:22.314Z,46.60
2018-04-11T13:27:51.897Z,45.80
2018-04-11T13:30:19.492Z,43.60
2018-04-11T13:50:05.540Z,51.40
2018-04-11T13:52:33.014Z,52.70
2018-04-11T13:55:00.579Z,53.10
2018-04-11T13:57:28.096Z,53.80
2018-04-11T13:59:55.636Z,55.40
2018-04-11T14:02:23.348Z,57.90
2018-04-11T14:04:51.072Z,57.10
2018-04-11T14:24:35.364Z,58.20
2018-04-11T14:27:02.852Z,58.00
2018-04-11T14:46:45.703Z,54.50
2018-04-11T15:06:32.076Z,53.40
2018-04-11T15:08:59.542Z,52.30
2018-04-11T15:48:53.347Z,48.20
2018-04-11T16:11:31.853Z,51.10
2018-04-11T16:31:15.790Z,52.70
2018-04-11T16:54:14.420Z,58.60
2018-04-11T16:56:41.980Z,57.70
2018-04-11T16:59:09.524Z,58.10
2018-04-11T17:01:37.027Z,57.70
2018-04-11T17:04:05.387Z,57.80
2018-04-11T17:06:32.907Z,56.60
2018-04-11T17:26:29.983Z,61.30
2018-04-11T17:46:16.030Z,66.40
2018-04-11T18:06:01.241Z,72.60
2018-04-11T18:25:45.814Z,79.20
2018-04-11T18:45:30.818Z,88.20
2018-04-11T19:05:14.291Z,91.70
2018-04-11T19:07:41.763Z,92.30
2018-04-11T19:10:09.307Z,92.70
2018-04-11T19:12:36.870Z,92.60
2018-04-11T19:17:56.812Z,93.20
2018-04-11T19:20:24.280Z,93.40
2018-04-11T19:22:51.744Z,93.90
2018-04-11T19:25:19.301Z,94.20
2018-04-11T19:45:03.734Z,95.40
2018-04-11T19:47:31.205Z,95.70
2018-04-11T19:49:58.833Z,96.00
2018-04-11T19:52:26.331Z,96.10
2018-04-11T19:54:53.794Z,96.20
2018-04-11T19:57:21.271Z,96.40
2018-04-11T19:59:48.749Z,96.40
2018-04-11T20:02:16.250Z,96.40
2018-04-11T20:04:43.719Z,96.30
2018-04-11T20:07:11.184Z,96.30
2018-04-11T20:09:38.701Z,96.30
2018-04-11T20:12:06.178Z,96.50
2018-04-11T20:14:33.637Z,96.70
2018-04-11T20:17:01.113Z,96.70
2018-04-11T20:19:28.583Z,96.60
2018-04-11T20:21:56.136Z,96.80
2018-04-11T20:41:41.515Z,98.60
2018-04-11T20:44:08.987Z,98.40
2018-04-11T20:46:36.456Z,98.60
2018-04-11T20:49:03.919Z,98.60
2018-04-11T20:51:31.387Z,98.70
2018-04-11T20:53:58.990Z,98.90
2018-04-11T20:56:26.516Z,98.80
2018-04-11T20:58:53.969Z,98.70
2018-04-11T21:01:21.434Z,98.60
2018-04-11T21:03:48.901Z,98.90
2018-04-11T21:06:16.403Z,98.80
2018-04-11T21:08:43.860Z,98.90
2018-04-11T21:11:11.384Z,98.90
2018-04-11T21:13:39.095Z,98.80
2018-04-11T21:16:06.572Z,98.90
2018-04-11T21:18:34.028Z,99.20
2018-04-11T21:21:01.503Z,99.40
2018-04-11T21:23:28.965Z,99.40
2018-04-11T21:25:56.507Z,99.20
2018-04-11T21:28:23.964Z,99.30
2018-04-11T21:30:51.433Z,99.30
2018-04-11T21:33:18.894Z,99.40
2018-04-11T21:35:46.446Z,99.30
2018-04-11T21:38:13.896Z,99.10
2018-04-11T21:40:41.363Z,99.10
2018-04-11T21:43:08.965Z,99.10
2018-04-11T21:45:36.469Z,99.30
2018-04-11T21:48:04.028Z,99.20
2018-04-11T21:50:31.749Z,99.10
2018-04-11T21:52:59.305Z,99.30
2018-04-11T22:12:45.459Z,99.20
2018-04-11T22:15:12.955Z,99.40
2018-04-11T22:17:40.396Z,99.60
2018-04-11T22:23:00.904Z,99.70
2018-04-11T22:25:28.362Z,99.60
2018-04-11T22:27:55.814Z,99.80
2018-04-11T22:30:23.288Z,99.80
2018-04-11T22:32:50.743Z,99.80
2018-04-11T22:35:18.293Z,99.80
2018-04-11T22:37:46.652Z,99.80
2018-04-11T22:40:14.116Z,99.50
2018-04-11T22:42:41.577Z,99.90
2018-04-11T22:45:09.032Z,99.90
2018-04-11T22:47:36.501Z,99.90
2018-04-11T22:50:04.043Z,99.90
2018-04-11T22:52:31.513Z,99.90
2018-04-11T22:54:58.972Z,99.90
2018-04-11T22:57:26.517Z,99.90
2018-04-11T22:59:53.977Z,99.90
2018-04-11T23:02:21.443Z,99.90
2018-04-11T23:04:48.903Z,99.70
2018-04-11T23:07:16.367Z,99.70
2018-04-11T23:09:43.893Z,99.90
2018-04-11T23:12:11.392Z,99.90
2018-04-11T23:14:38.847Z,99.70
2018-04-11T23:17:06.317Z,99.80
2018-04-11T23:19:33.772Z,99.90
2018-04-11T23:22:01.237Z,99.90
2018-04-11T23:24:28.703Z,99.90
2018-04-11T23:26:56.167Z,99.90
2018-04-11T23:29:23.701Z,99.90
2018-04-11T23:31:51.201Z,99.90
2018-04-11T23:34:18.681Z,99.90
2018-04-11T23:36:46.156Z,99.90
2018-04-11T23:39:13.625Z,99.90
2018-04-11T23:41:41.286Z,99.80
2018-04-11T23:44:08.756Z,99.80
2018-04-11T23:46:36.224Z,99.50
2018-04-11T23:49:03.800Z,99.20
2018-04-11T23:51:31.352Z,99.40
2018-04-11T23:53:58.817Z,99.40
2018-04-11T23:56:26.288Z,99.00
2018-04-11T23:58:53.777Z,99.40
